createdAt,value
2022-10-19T00:01:07.513Z,100537.31
2022-10-19T00:03:57.028Z,100539.31
2022-10-19T00:06:46.892Z,100530.31
2022-10-19T00:09:35.564Z,100532.38
2022-10-19T00:12:23.050Z,100537.63
2022-10-19T00:15:11.242Z,100533.66
2022-10-19T00:17:58.845Z,100531.84
2022-10-19T00:20:46.138Z,100539.16
2022-10-19T00:23:33.892Z,100534.16
2022-10-19T00:26:22.629Z,100530.75
2022-10-19T00:29:11.904Z,100535.19
2022-10-19T00:31:59.598Z,100524.13
2022-10-19T00:34:46.894Z,100532.22
2022-10-19T00:37:34.482Z,100531.94
2022-10-19T00:40:21.835Z,100529.53
2022-10-19T00:43:16.273Z,100524.78
2022-10-19T00:46:03.828Z,100526.28
2022-10-19T00:48:54.287Z,100518.56
2022-10-19T00:51:45.313Z,100518.00
2022-10-19T00:54:34.014Z,100516.97
2022-10-19T00:57:22.371Z,100517.78
2022-10-19T01:00:12.186Z,100514.53
2022-10-19T01:03:00.005Z,100511.81
2022-10-19T01:05:47.750Z,100514.91
2022-10-19T01:08:35.373Z,100509.88
2022-10-19T01:11:36.343Z,100513.66
2022-10-19T01:14:34.715Z,100501.84
2022-10-19T01:17:35.966Z,100505.50
2022-10-19T01:21:27.217Z,100495.97
2022-10-19T01:24:45.460Z,100497.50
2022-10-19T01:28:19.553Z,100499.13
2022-10-19T01:31:18.999Z,100492.59
2022-10-19T01:34:11.863Z,100488.44
2022-10-19T01:37:06.373Z,100483.75
2022-10-19T01:40:00.283Z,100484.41
2022-10-19T01:42:56.973Z,100482.91
2022-10-19T01:45:51.935Z,100482.91
2022-10-19T01:48:44.685Z,100485.28
2022-10-19T01:51:36.129Z,100482.44
2022-10-19T01:54:26.262Z,100476.94
2022-10-19T01:57:20.548Z,100479.09
2022-10-19T02:00:12.279Z,100473.03
2022-10-19T02:03:01.939Z,100475.66
2022-10-19T02:05:52.025Z,100463.81
2022-10-19T02:08:45.416Z,100469.06
2022-10-19T02:11:33.678Z,100466.66
2022-10-19T02:14:26.936Z,100457.69
2022-10-19T02:17:18.539Z,100466.28
2022-10-19T02:20:07.449Z,100452.03
2022-10-19T02:22:56.093Z,100453.53
2022-10-19T02:25:43.655Z,100447.94
2022-10-19T02:28:32.404Z,100443.16
2022-10-19T02:31:19.929Z,100445.78
2022-10-19T02:34:07.623Z,100439.53
2022-10-19T02:36:55.486Z,100444.78
2022-10-19T02:39:44.436Z,100448.50
2022-10-19T02:42:39.996Z,100447.22
2022-10-19T02:45:31.329Z,100445.41
2022-10-19T02:48:23.801Z,100445.97
2022-10-19T02:51:33.716Z,100453.84
2022-10-19T02:54:21.183Z,100458.53
2022-10-19T02:57:17.953Z,100453.53
2022-10-19T03:00:07.661Z,100445.88
2022-10-19T03:02:54.909Z,100453.19
2022-10-19T03:05:42.421Z,100454.25
2022-10-19T03:08:29.755Z,100448.41
2022-10-19T03:11:17.261Z,100451.53
2022-10-19T03:14:05.960Z,100453.84
2022-10-19T03:16:53.475Z,100450.13
2022-10-19T03:19:41.005Z,100446.63
2022-10-19T03:22:28.620Z,100441.84
2022-10-19T03:25:16.113Z,100440.22
2022-10-19T03:28:03.571Z,100442.84
2022-10-19T03:30:52.447Z,100436.34
2022-10-19T03:33:39.998Z,100436.13
2022-10-19T03:36:30.381Z,100433.50
2022-10-19T03:39:18.428Z,100442.13
2022-10-19T03:42:05.821Z,100438.75
2022-10-19T03:44:53.317Z,100444.22
2022-10-19T03:47:41.957Z,100439.75
2022-10-19T03:50:29.411Z,100439.75
2022-10-19T03:53:16.802Z,100444.00
2022-10-19T03:56:06.564Z,100440.31
2022-10-19T03:58:56.615Z,100435.31
2022-10-19T04:01:47.324Z,100442.94
2022-10-19T04:04:36.669Z,100440.56
2022-10-19T04:07:24.300Z,100434.50
2022-10-19T04:10:11.798Z,100439.75
2022-10-19T04:12:59.486Z,100434.97
2022-10-19T04:15:46.717Z,100435.47
2022-10-19T04:18:34.055Z,100436.72
2022-10-19T04:21:25.580Z,100434.34
2022-10-19T04:24:15.695Z,100432.75
2022-10-19T04:27:03.381Z,100436.44
2022-10-19T04:29:50.894Z,100436.66
2022-10-19T04:32:38.473Z,100430.84
2022-10-19T04:35:25.762Z,100442.16
2022-10-19T04:38:14.729Z,100440.56
2022-10-19T04:41:03.945Z,100445.25
2022-10-19T04:43:58.563Z,100445.72
2022-10-19T04:46:45.857Z,100447.22
2022-10-19T04:49:33.273Z,100443.78
2022-10-19T04:52:20.541Z,100444.03
2022-10-19T04:55:10.171Z,100442.91
2022-10-19T04:57:57.872Z,100440.22
2022-10-19T05:00:45.183Z,100439.41
2022-10-19T05:03:32.460Z,100437.59
2022-10-19T05:06:19.745Z,100437.03
2022-10-19T05:09:07.753Z,100435.91
2022-10-19T05:11:56.482Z,100425.31
2022-10-19T05:14:44.181Z,100427.63
2022-10-19T05:17:32.381Z,100424.19
2022-10-19T05:20:20.297Z,100420.56
2022-10-19T05:23:07.634Z,100416.34
2022-10-19T05:26:02.277Z,100404.72
2022-10-19T05:28:56.405Z,100410.78
2022-10-19T05:31:43.926Z,100409.50
2022-10-19T05:34:31.209Z,100414.28
2022-10-19T05:37:18.925Z,100411.66
2022-10-19T05:40:08.461Z,100410.31
2022-10-19T05:42:56.098Z,100411.56
2022-10-19T05:45:44.667Z,100415.22
2022-10-19T05:48:33.786Z,100413.16
2022-10-19T05:51:23.002Z,100411.09
2022-10-19T05:54:11.265Z,100411.09
2022-10-19T05:56:58.947Z,100415.56
2022-10-19T05:59:46.196Z,100419.19
2022-10-19T06:02:34.970Z,100413.94
2022-10-19T06:05:03.963Z,100413.94
2022-10-19T06:07:33.333Z,100412.34
2022-10-19T06:10:02.733Z,100412.78
2022-10-19T06:12:31.770Z,100421.47
2022-10-19T06:15:00.761Z,100419.09
2022-10-19T06:17:30.494Z,100416.47
2022-10-19T06:20:00.925Z,100418.03
2022-10-19T06:22:29.944Z,100417.22
2022-10-19T06:25:00.877Z,100418.84
2022-10-19T06:27:30.536Z,100419.84
2022-10-19T06:29:59.587Z,100421.38
2022-10-19T06:32:29.361Z,100426.31
2022-10-19T06:34:58.441Z,100421.75
2022-10-19T06:37:28.831Z,100424.03
2022-10-19T06:39:57.994Z,100422.44
2022-10-19T06:42:26.993Z,100426.13
2022-10-19T06:44:56.123Z,100426.13
2022-10-19T06:47:31.004Z,100431.13
2022-10-19T06:50:00.127Z,100424.84
2022-10-19T06:52:30.903Z,100434.88
2022-10-19T06:55:00.088Z,100431.22
2022-10-19T06:57:29.215Z,100430.75
2022-10-19T06:59:58.235Z,100431.84
2022-10-19T07:02:27.352Z,100437.22
2022-10-19T07:04:56.369Z,100436.53
2022-10-19T07:07:25.560Z,100432.94
2022-10-19T07:09:56.130Z,100432.25
2022-10-19T07:12:25.577Z,100443.50
2022-10-19T07:14:55.657Z,100433.00
2022-10-19T07:17:24.997Z,100438.81
2022-10-19T07:19:55.110Z,100431.72
2022-10-19T07:22:28.002Z,100426.22
2022-10-19T07:24:58.804Z,100429.06
2022-10-19T07:27:28.053Z,100422.47
2022-10-19T07:29:57.196Z,100422.69
2022-10-19T07:32:26.401Z,100423.19
2022-10-19T07:34:55.578Z,100425.97
2022-10-19T07:37:24.755Z,100430.66
2022-10-19T07:39:54.006Z,100429.25
2022-10-19T07:42:24.532Z,100437.31
2022-10-19T07:44:53.750Z,100424.78
2022-10-19T07:47:22.911Z,100438.28
2022-10-19T07:49:52.018Z,100433.84
2022-10-19T07:52:22.385Z,100433.09
2022-10-19T07:54:52.679Z,100435.53
2022-10-19T07:57:23.409Z,100439.78
2022-10-19T07:59:52.624Z,100432.72
2022-10-19T08:02:21.896Z,100428.88
2022-10-19T08:05:01.063Z,100427.41
2022-10-19T08:07:31.118Z,100428.31
2022-10-19T08:10:00.295Z,100436.78
2022-10-19T08:12:31.184Z,100434.50
2022-10-19T08:15:00.697Z,100430.09
2022-10-19T08:17:30.903Z,100431.47
2022-10-19T08:20:00.351Z,100418.88
2022-10-19T08:22:29.594Z,100422.03
2022-10-19T08:24:58.850Z,100423.94
2022-10-19T08:27:29.150Z,100433.47
2022-10-19T08:30:00.289Z,100421.06
2022-10-19T08:32:29.721Z,100423.19
2022-10-19T08:34:59.074Z,100425.31
2022-10-19T08:37:43.816Z,100416.88
2022-10-19T08:40:21.034Z,100424.53
2022-10-19T08:42:59.562Z,100429.28
2022-10-19T08:48:28.398Z,100418.69
2022-10-19T08:51:00.038Z,100410.50
2022-10-19T08:53:39.041Z,100412.63
2022-10-19T08:56:49.806Z,100403.91
2022-10-19T08:59:27.219Z,100408.69
2022-10-19T09:02:02.503Z,100401.56
2022-10-19T09:04:36.882Z,100408.16
2022-10-19T09:07:25.090Z,100411.81
2022-10-19T09:09:59.461Z,100402.84
2022-10-19T09:12:46.563Z,100403.88
2022-10-19T09:15:20.754Z,100405.22
2022-10-19T09:17:52.211Z,100409.94
2022-10-19T09:20:24.772Z,100405.19
2022-10-19T09:23:08.646Z,100401.78
2022-10-19T09:25:42.008Z,100406.53
2022-10-19T09:28:31.548Z,100406.81
2022-10-19T09:31:07.277Z,100399.72
2022-10-19T09:33:41.121Z,100407.34
2022-10-19T09:36:22.299Z,100397.78
2022-10-19T09:38:57.261Z,100402.03
2022-10-19T09:41:27.471Z,100401.97
2022-10-19T09:43:57.890Z,100402.25
2022-10-19T09:46:51.980Z,100397.28
2022-10-19T09:49:41.998Z,100389.88
2022-10-19T09:52:30.834Z,100398.63
2022-10-19T09:55:04.440Z,100405.78
2022-10-19T09:57:35.284Z,100398.91
2022-10-19T10:00:05.690Z,100392.03
2022-10-19T10:02:36.298Z,100394.44
2022-10-19T10:05:15.858Z,100397.31
2022-10-19T10:07:46.105Z,100390.19
2022-10-19T10:10:28.146Z,100398.13
2022-10-19T10:13:01.228Z,100394.69
2022-10-19T10:15:42.688Z,100396.25
2022-10-19T10:18:16.926Z,100394.91
2022-10-19T10:21:06.995Z,100390.16
2022-10-19T10:23:37.790Z,100382.22
2022-10-19T10:26:19.847Z,100387.50
2022-10-19T10:28:51.559Z,100397.28
2022-10-19T10:31:25.570Z,100386.47
2022-10-19T10:34:10.823Z,100393.84
2022-10-19T10:36:55.972Z,100389.91
2022-10-19T10:39:27.255Z,100392.53
2022-10-19T10:42:03.266Z,100392.28
2022-10-19T10:44:36.652Z,100386.75
2022-10-19T10:47:15.221Z,100393.06
2022-10-19T10:49:48.887Z,100388.34
2022-10-19T10:52:21.564Z,100381.22
2022-10-19T10:55:07.904Z,100380.13
2022-10-19T10:57:41.417Z,100383.81
2022-10-19T11:00:17.130Z,100360.56
2022-10-19T11:02:51.032Z,100366.91
2022-10-19T11:05:26.696Z,100366.09
2022-10-19T11:08:06.602Z,100358.19
2022-10-19T11:10:41.298Z,100369.28
2022-10-19T11:13:18.413Z,100359.25
2022-10-19T11:15:55.190Z,100345.53
2022-10-19T11:18:29.701Z,100356.88
2022-10-19T11:21:07.989Z,100355.03
2022-10-19T11:23:51.822Z,100351.84
2022-10-19T11:26:40.349Z,100332.31
2022-10-19T11:29:33.099Z,100332.81
2022-10-19T11:32:02.759Z,100341.03
2022-10-19T11:34:58.445Z,100332.59
2022-10-19T11:37:33.892Z,100334.97
2022-10-19T11:40:17.727Z,100315.41
2022-10-19T11:43:02.713Z,100317.50
2022-10-19T11:45:52.196Z,100311.94
2022-10-19T11:49:04.058Z,100303.50
2022-10-19T11:51:41.228Z,100305.13
2022-10-19T11:54:28.266Z,100301.41
2022-10-19T11:57:10.505Z,100312.25
2022-10-19T12:00:13.562Z,100301.72
2022-10-19T12:03:26.870Z,100295.09
2022-10-19T12:06:09.293Z,100284.28
2022-10-19T12:09:00.887Z,100293.78
2022-10-19T12:11:47.556Z,100293.78
2022-10-19T12:14:24.273Z,100285.88
2022-10-19T12:16:59.276Z,100274.00
2022-10-19T12:19:33.994Z,100267.34
2022-10-19T12:22:06.169Z,100272.63
2022-10-19T12:24:36.623Z,100274.72
2022-10-19T12:27:08.121Z,100264.69
2022-10-19T12:29:43.291Z,100262.31
2022-10-19T12:32:17.618Z,100263.09
2022-10-19T12:34:55.318Z,100261.00
2022-10-19T12:37:34.396Z,100262.59
2022-10-19T12:40:13.294Z,100254.69
2022-10-19T12:42:53.694Z,100249.41
2022-10-19T12:45:32.219Z,100253.91
2022-10-19T12:48:23.142Z,100255.50
2022-10-19T12:51:20.208Z,100256.06
2022-10-19T12:53:51.301Z,100249.16
2022-10-19T12:56:24.344Z,100245.72
2022-10-19T12:59:01.327Z,100249.13
2022-10-19T13:01:45.182Z,100257.31
2022-10-19T13:04:18.011Z,100253.34
2022-10-19T13:06:50.571Z,100243.56
2022-10-19T13:09:26.254Z,100252.03
2022-10-19T13:12:52.365Z,100240.91
2022-10-19T13:19:21.563Z,100239.78
2022-10-19T13:22:28.147Z,100228.41
2022-10-19T13:25:28.289Z,100224.69
2022-10-19T13:28:03.186Z,100213.34
2022-10-19T13:31:07.044Z,100222.06
2022-10-19T13:33:55.112Z,100209.66
2022-10-19T13:36:27.059Z,100207.06
2022-10-19T13:39:16.955Z,100201.25
2022-10-19T13:41:53.794Z,100207.84
2022-10-19T13:44:31.363Z,100197.25
2022-10-19T13:47:24.766Z,100195.91
2022-10-19T13:50:27.578Z,100199.03
2022-10-19T13:53:37.682Z,100195.28
2022-10-19T13:59:48.319Z,100179.88
2022-10-19T14:02:56.450Z,100187.78
2022-10-19T14:05:57.498Z,100186.22
2022-10-19T14:09:07.120Z,100186.72
2022-10-19T14:11:40.232Z,100189.44
2022-10-19T14:14:22.509Z,100186.34
2022-10-19T14:17:01.197Z,100186.59
2022-10-19T14:19:43.578Z,100181.84
2022-10-19T14:22:30.072Z,100187.06
2022-10-19T14:25:08.135Z,100185.50
2022-10-19T14:27:38.391Z,100191.56
2022-10-19T14:30:22.911Z,100183.66
2022-10-19T14:32:54.016Z,100183.72
2022-10-19T14:35:30.424Z,100170.00
2022-10-19T14:38:00.668Z,100173.13
2022-10-19T14:40:34.689Z,100178.69
2022-10-19T14:43:23.509Z,100164.72
2022-10-19T14:46:13.039Z,100170.19
2022-10-19T14:48:46.239Z,100160.97
2022-10-19T14:51:31.610Z,100157.22
2022-10-19T14:54:06.640Z,100160.34
2022-10-19T14:56:44.507Z,100160.28
2022-10-19T14:59:25.864Z,100167.06
2022-10-19T15:01:59.094Z,100153.84
2022-10-19T15:04:32.184Z,100164.06
2022-10-19T15:07:14.857Z,100160.06
2022-10-19T15:09:51.938Z,100154.75
2022-10-19T15:12:28.621Z,100168.16
2022-10-19T15:14:59.100Z,100185.50
2022-10-19T15:17:31.768Z,100166.22
2022-10-19T15:20:02.265Z,100159.38
2022-10-19T15:22:41.279Z,100147.03
2022-10-19T15:25:28.713Z,100119.50
2022-10-19T15:28:00.159Z,100130.84
2022-10-19T15:30:33.307Z,100128.47
2022-10-19T15:33:16.490Z,100131.59
2022-10-19T15:35:46.319Z,100133.22
2022-10-19T15:38:22.301Z,100123.44
2022-10-19T15:40:59.088Z,100128.44
2022-10-19T15:43:46.118Z,100119.50
2022-10-19T15:46:36.066Z,100112.75
2022-10-19T15:49:45.800Z,100116.75
2022-10-19T15:52:17.698Z,100127.03
2022-10-19T15:54:49.531Z,100125.47
2022-10-19T15:57:30.537Z,100113.44
2022-10-19T16:00:03.866Z,100126.34
2022-10-19T16:02:36.254Z,100111.13
2022-10-19T16:07:40.329Z,100107.94
2022-10-19T16:10:16.916Z,100097.91
2022-10-19T16:12:46.485Z,100081.63
2022-10-19T16:15:22.468Z,100087.94
2022-10-19T16:17:54.341Z,100094.28
2022-10-19T16:20:24.786Z,100072.69
2022-10-19T16:22:54.189Z,100077.41
2022-10-19T16:25:23.898Z,100081.03
2022-10-19T16:27:53.542Z,100088.94
2022-10-19T16:30:24.479Z,100073.66
2022-10-19T16:32:53.768Z,100081.03
2022-10-19T16:35:23.960Z,100085.72
2022-10-19T16:37:53.243Z,100105.44
2022-10-19T16:40:24.579Z,100084.66
2022-10-19T16:42:56.743Z,100087.25
2022-10-19T16:45:27.720Z,100085.66
2022-10-19T16:47:57.147Z,100089.91
2022-10-19T16:50:26.674Z,100094.66
2022-10-19T16:53:07.225Z,100088.84
2022-10-19T16:55:36.469Z,100098.91
2022-10-19T16:58:05.755Z,100083.16
2022-10-19T17:00:37.254Z,100104.19
2022-10-19T17:03:07.414Z,100102.91
2022-10-19T17:05:39.396Z,100098.44
2022-10-19T17:08:09.266Z,100092.38
2022-10-19T17:10:38.621Z,100087.13
2022-10-19T17:13:07.958Z,100100.03
2022-10-19T17:15:43.062Z,100093.09
2022-10-19T17:18:13.093Z,100097.81
2022-10-19T17:20:42.639Z,100087.75
2022-10-19T17:23:11.949Z,100086.16
2022-10-19T17:25:48.894Z,100086.16
2022-10-19T17:28:18.170Z,100087.75
2022-10-19T17:30:49.190Z,100095.91
2022-10-19T17:33:18.527Z,100083.22
2022-10-19T17:35:48.098Z,100082.44
2022-10-19T17:38:17.959Z,100094.50
2022-10-19T17:40:47.631Z,100080.25
2022-10-19T17:43:16.875Z,100086.00
2022-10-19T17:45:46.221Z,100084.44
2022-10-19T17:48:17.038Z,100083.91
2022-10-19T17:50:46.301Z,100081.28
2022-10-19T17:53:15.648Z,100087.06
2022-10-19T17:55:44.884Z,100074.97
2022-10-19T17:58:14.304Z,100077.28
2022-10-19T18:00:43.664Z,100074.34
2022-10-19T18:03:13.073Z,100084.00
2022-10-19T18:05:43.865Z,100063.72
2022-10-19T18:08:13.197Z,100078.91
2022-10-19T18:10:42.474Z,100075.22
2022-10-19T18:13:11.758Z,100067.31
2022-10-19T18:15:41.041Z,100065.78
2022-10-19T18:18:10.317Z,100071.59
2022-10-19T18:20:40.779Z,100050.94
2022-10-19T18:23:11.599Z,100058.81
2022-10-19T18:25:53.593Z,100057.75
2022-10-19T18:28:23.687Z,100049.38
2022-10-19T18:30:53.162Z,100063.66
2022-10-19T18:33:23.460Z,100051.06
2022-10-19T18:35:52.828Z,100066.91
2022-10-19T18:38:23.529Z,100063.31
2022-10-19T18:40:52.881Z,100052.53
2022-10-19T18:43:22.214Z,100058.63
2022-10-19T18:45:56.525Z,100045.50
2022-10-19T18:48:27.104Z,100042.88
2022-10-19T18:50:56.686Z,100040.75
2022-10-19T18:53:27.504Z,100039.44
2022-10-19T18:56:00.458Z,100028.13
2022-10-19T18:58:31.012Z,100028.94
2022-10-19T19:01:08.964Z,100030.75
2022-10-19T19:03:40.256Z,100035.47
2022-10-19T19:06:14.027Z,100018.16
2022-10-19T19:08:45.236Z,100025.47
2022-10-19T19:11:17.173Z,100021.53
2022-10-19T19:13:50.681Z,100032.56
2022-10-19T19:16:20.649Z,100032.31
2022-10-19T19:18:50.194Z,100021.53
2022-10-19T19:21:21.914Z,100019.41
2022-10-19T19:23:54.268Z,100015.47
2022-10-19T19:26:26.381Z,100018.66
2022-10-19T19:28:57.364Z,100019.59
2022-10-19T19:31:27.072Z,100003.50
2022-10-19T19:33:56.438Z,100001.63
2022-10-19T19:36:25.806Z,100011.31
2022-10-19T19:38:57.291Z,100002.59
2022-10-19T19:41:27.730Z,100007.38
2022-10-19T19:43:59.083Z,100008.13
2022-10-19T19:46:28.550Z,100012.69
2022-10-19T19:49:02.482Z,100011.56
2022-10-19T19:51:33.571Z,100008.94
2022-10-19T19:54:04.750Z,100005.50
2022-10-19T19:56:34.333Z,100004.81
2022-10-19T19:59:04.575Z,99998.25
2022-10-19T20:01:34.433Z,99996.91
2022-10-19T20:04:22.148Z,99996.88
2022-10-19T20:07:09.713Z,99991.06
2022-10-19T20:09:58.956Z,99985.31
2022-10-19T20:12:47.268Z,99989.47
2022-10-19T20:15:37.081Z,99974.22
2022-10-19T20:18:24.838Z,99989.97
2022-10-19T20:21:12.710Z,99990.53
2022-10-19T20:24:00.804Z,99984.47
2022-10-19T20:26:49.829Z,99970.03
2022-10-19T20:29:37.923Z,99971.56
2022-10-19T20:32:25.959Z,99971.31
2022-10-19T20:35:13.784Z,99972.91
2022-10-19T20:41:08.018Z,99976.34
2022-10-19T20:43:57.883Z,99979.78
2022-10-19T20:46:45.248Z,99977.94
2022-10-19T20:49:32.582Z,99975.56
2022-10-19T20:52:19.766Z,99971.59
2022-10-19T20:55:08.394Z,99979.44
2022-10-19T20:57:55.876Z,99981.03
2022-10-19T21:00:44.844Z,99968.66
2022-10-19T21:03:32.111Z,99977.34
2022-10-19T21:06:20.486Z,99975.53
2022-10-19T21:09:08.692Z,99974.97
2022-10-19T21:11:56.487Z,99975.72
2022-10-19T21:14:44.165Z,99982.81
2022-10-19T21:17:33.109Z,99975.19
2022-10-19T21:20:20.667Z,99982.03
2022-10-19T21:23:07.977Z,99987.28
2022-10-19T21:25:55.701Z,99984.91
2022-10-19T21:28:48.362Z,99987.75
2022-10-19T21:31:35.663Z,99987.00
2022-10-19T21:34:27.091Z,99992.44
2022-10-19T21:37:14.312Z,99979.44
2022-10-19T21:40:01.820Z,99979.84
2022-10-19T21:42:49.192Z,99970.13
2022-10-19T21:45:39.206Z,99955.63
2022-10-19T21:48:26.783Z,99972.88
2022-10-19T21:51:27.437Z,99973.66
2022-10-19T21:54:18.306Z,99959.28
2022-10-19T21:57:05.677Z,99959.53
2022-10-19T21:59:52.943Z,99955.28
2022-10-19T22:02:40.264Z,99962.66
2022-10-19T22:05:27.664Z,99953.25
2022-10-19T22:08:16.496Z,99945.41
2022-10-19T22:11:07.319Z,99945.97
2022-10-19T22:13:56.801Z,99946.69
2022-10-19T22:16:44.575Z,99951.69
2022-10-19T22:19:31.885Z,99948.53
2022-10-19T22:22:19.211Z,99941.94
2022-10-19T22:25:08.812Z,99930.13
2022-10-19T22:27:56.378Z,99924.31
2022-10-19T22:30:45.182Z,99919.88
2022-10-19T22:33:32.861Z,99923.06
2022-10-19T22:36:20.688Z,99914.94
2022-10-19T22:39:09.183Z,99916.56
2022-10-19T22:41:57.931Z,99916.31
2022-10-19T22:44:45.578Z,99913.44
2022-10-19T22:47:32.740Z,99912.41
2022-10-19T22:50:20.168Z,99910.03
2022-10-19T22:53:07.829Z,99911.31
2022-10-19T22:55:55.028Z,99900.28
2022-10-19T22:58:43.629Z,99897.59
2022-10-19T23:01:31.438Z,99890.22
2022-10-19T23:04:19.000Z,99879.22
2022-10-19T23:07:06.258Z,99884.38
2022-10-19T23:09:53.515Z,99874.94
2022-10-19T23:12:41.029Z,99870.25
2022-10-19T23:15:29.896Z,99857.16
2022-10-19T23:18:17.468Z,99857.16
2022-10-19T23:21:07.706Z,99867.31
2022-10-19T23:23:55.318Z,99858.09
2022-10-19T23:26:42.583Z,99856.00
2022-10-19T23:29:29.846Z,99857.78
2022-10-19T23:32:18.434Z,99853.34
2022-10-19T23:35:07.436Z,99843.09
2022-10-19T23:37:54.973Z,99850.16
2022-10-19T23:40:44.125Z,99843.84
2022-10-19T23:43:31.759Z,99839.16
2022-10-19T23:46:19.653Z,99837.53
2022-10-19T23:49:08.760Z,99833.53
2022-10-19T23:51:56.410Z,99831.44
2022-10-19T23:54:43.536Z,99838.03
2022-10-19T23:57:31.305Z,99830.72
